Tropical Cyclones
[Index]
Main Index Home Page Stock Weather Photos Extreme Storms Discussion Storm News and Storm Chasing Reports Tropical Cyclones / Hurricanes / Typhoons Weather Data and Links Wild Fires / Bushfires Weather Observation Techniques Weather Picture Catalogue Tornado Pictures and Reports Stock Video Footage and DVDs for sale
Season 1996-1997 Tropical Cyclone EVAN Track Map
Season 1996-1997 Summaries: [BoM-AU] [JTWC-AU] [JTWC-SIO] [JTWC-SPAC] [JTWC-SH]
<<- Previous TC | JTWC 1996-1997 Season | Next TC ->>

click for intensity scale information  Lat/long Grid: Show Hide

 Date Labels: Show Hide

Joint Typhoon Warning Centre Cyclone Data

Name: EVAN

08 Jan 1997 12:00 UTC to 17 Jan 1997 12:00 UTC

    date/time    lat    long     hPa   cat  kts
1997-01-08 12   15.5   171.7W                 15          
1997-01-08 18   16.0   171.9W                 20          
1997-01-09 00   16.3   172.3W                 25          
1997-01-09 06   16.5   172.8W                 30          
1997-01-09 12   16.6   173.3W                 35          
1997-01-09 18   16.5   173.7W                 35          
1997-01-10 00   16.2   174.0W                 35          
1997-01-10 06   15.9   174.1W                 35          
1997-01-10 12   15.6   174.1W                 35          
1997-01-10 18   15.3   174.0W                 35          
1997-01-11 00   14.9   173.6W           1     40          
1997-01-11 06   14.4   173.0W           1     45          
1997-01-11 12   13.9   172.4W           1     50          
1997-01-11 18   13.5   171.8W           2     55          
1997-01-12 00   13.3   171.3W           2     55          
1997-01-12 06   13.2   170.8W           1     50          
1997-01-12 12   13.3   170.2W           1     45          
1997-01-12 18   13.4   169.6W           1     45          
1997-01-13 00   13.6   169.0W           1     50          
1997-01-13 06   13.9   168.4W           2     55          
1997-01-13 12   14.6   167.8W           2     60          
1997-01-13 18   15.3   167.1W           2     65          
1997-01-14 00   16.1   166.5W           2     65          
1997-01-14 06   17.0   166.1W           2     65          
1997-01-14 12   18.2   165.8W           2     65          
1997-01-14 18   19.5   165.7W           2     65          
1997-01-15 00   21.2   166.0W           2     70          
1997-01-15 06   22.9   166.6W           2     70          
1997-01-15 12   24.7   167.1W           2     65          
1997-01-15 18   26.6   167.9W           2     60          
1997-01-16 00   28.3   169.0W           2     55          
1997-01-16 06   29.9   169.7W           1     50          
1997-01-16 12   31.7   170.0W           1     45          
1997-01-16 18   34.1   169.5W           1     40          
1997-01-17 00   36.3   168.3W           1     40          
1997-01-17 06   38.5   167.1W                 35          
1997-01-17 12   40.5   166.0W                 35          
Winds are 1-min average.

Tropical cyclone tracks developed by Michael Bath using data from the Joint Typhoon Warning Centre Best Tracks and Google Maps.


[Australian Severe Weather index] [Copyright Notice] [Email Contacts] [Search This Site] [Privacy Policy]
Document: tropical_cyclone_evan.htm Updated: 18 September 2016